• images/banner/banner1.jpg
  • images/banner/banner2.jpg

Team Member Login

Aviation Weather

[source: ADDS]
METAR
EGVN 190950Z 24007KT 9999 FEW020 BKN070 20/14 Q1022 TEMPO SCT022 =
TAF
TAF EGVN 190728Z 1909/2009 25008KT 9999 SCT025 TEMPO 1909/1911 SCT014 TEMPO 1911/1914 SCT020 BECMG 1923/2002 BKN008 TEMPO 2004/2009 FEW008 =